sensor_id;sensor_type;location;lat;lon;timestamp;P1;durP1;ratioP1;P2;durP2;ratioP2
10335;SDS011;5213;53.548;9.930;2023-11-22T00:00:53;3.58;;;3.22;;
10335;SDS011;5213;53.548;9.930;2023-11-22T00:03:18;3.67;;;3.20;;
10335;SDS011;5213;53.548;9.930;2023-11-22T00:05:44;3.67;;;3.38;;
10335;SDS011;5213;53.548;9.930;2023-11-22T00:08:09;5.28;;;3.95;;
10335;SDS011;5213;53.548;9.930;2023-11-22T00:10:35;4.35;;;3.40;;
10335;SDS011;5213;53.548;9.930;2023-11-22T00:13:01;3.92;;;3.30;;
10335;SDS011;5213;53.548;9.930;2023-11-22T00:15:26;4.05;;;3.50;;
10335;SDS011;5213;53.548;9.930;2023-11-22T00:17:52;6.13;;;3.90;;
10335;SDS011;5213;53.548;9.930;2023-11-22T00:20:18;4.90;;;3.55;;
10335;SDS011;5213;53.548;9.930;2023-11-22T00:22:45;5.18;;;3.47;;
10335;SDS011;5213;53.548;9.930;2023-11-22T00:25:10;3.50;;;3.20;;
10335;SDS011;5213;53.548;9.930;2023-11-22T00:27:38;4.63;;;3.42;;
10335;SDS011;5213;53.548;9.930;2023-11-22T00:30:04;5.20;;;3.88;;
10335;SDS011;5213;53.548;9.930;2023-11-22T00:32:30;3.85;;;3.38;;
10335;SDS011;5213;53.548;9.930;2023-11-22T00:34:56;4.03;;;3.60;;
10335;SDS011;5213;53.548;9.930;2023-11-22T00:37:22;4.43;;;3.50;;
10335;SDS011;5213;53.548;9.930;2023-11-22T00:39:48;4.57;;;3.70;;
10335;SDS011;5213;53.548;9.930;2023-11-22T00:42:13;4.25;;;3.45;;
10335;SDS011;5213;53.548;9.930;2023-11-22T00:44:39;4.28;;;3.67;;
10335;SDS011;5213;53.548;9.930;2023-11-22T00:47:05;4.38;;;3.97;;
10335;SDS011;5213;53.548;9.930;2023-11-22T00:49:31;6.07;;;3.85;;
10335;SDS011;5213;53.548;9.930;2023-11-22T00:51:57;4.35;;;3.95;;
10335;SDS011;5213;53.548;9.930;2023-11-22T00:54:23;6.68;;;4.65;;
10335;SDS011;5213;53.548;9.930;2023-11-22T00:56:50;5.28;;;4.35;;
10335;SDS011;5213;53.548;9.930;2023-11-22T00:59:15;4.93;;;4.25;;
10335;SDS011;5213;53.548;9.930;2023-11-22T01:01:41;5.38;;;3.92;;
10335;SDS011;5213;53.548;9.930;2023-11-22T01:04:07;4.88;;;4.38;;
10335;SDS011;5213;53.548;9.930;2023-11-22T01:06:33;5.50;;;4.47;;
10335;SDS011;5213;53.548;9.930;2023-11-22T01:08:59;6.57;;;4.80;;
10335;SDS011;5213;53.548;9.930;2023-11-22T01:11:25;6.35;;;4.68;;
10335;SDS011;5213;53.548;9.930;2023-11-22T01:13:51;7.82;;;5.22;;
10335;SDS011;5213;53.548;9.930;2023-11-22T01:16:16;6.72;;;5.15;;
10335;SDS011;5213;53.548;9.930;2023-11-22T01:18:42;6.25;;;5.13;;
10335;SDS011;5213;53.548;9.930;2023-11-22T01:21:08;6.75;;;4.95;;
10335;SDS011;5213;53.548;9.930;2023-11-22T01:23:34;8.13;;;4.85;;
10335;SDS011;5213;53.548;9.930;2023-11-22T01:26:00;6.43;;;4.55;;
10335;SDS011;5213;53.548;9.930;2023-11-22T01:28:26;5.13;;;4.38;;
10335;SDS011;5213;53.548;9.930;2023-11-22T01:30:52;6.15;;;4.57;;
10335;SDS011;5213;53.548;9.930;2023-11-22T01:33:19;7.90;;;4.55;;
10335;SDS011;5213;53.548;9.930;2023-11-22T01:35:47;6.15;;;4.20;;
10335;SDS011;5213;53.548;9.930;2023-11-22T01:38:13;5.07;;;4.20;;
10335;SDS011;5213;53.548;9.930;2023-11-22T01:40:48;6.50;;;4.15;;
10335;SDS011;5213;53.548;9.930;2023-11-22T01:43:19;5.22;;;4.22;;
10335;SDS011;5213;53.548;9.930;2023-11-22T01:45:46;6.55;;;4.40;;
10335;SDS011;5213;53.548;9.930;2023-11-22T01:48:11;5.35;;;4.20;;
10335;SDS011;5213;53.548;9.930;2023-11-22T01:50:38;5.32;;;4.30;;
10335;SDS011;5213;53.548;9.930;2023-11-22T01:53:05;6.93;;;4.40;;
10335;SDS011;5213;53.548;9.930;2023-11-22T01:55:31;5.18;;;4.53;;
10335;SDS011;5213;53.548;9.930;2023-11-22T01:57:57;6.57;;;4.38;;
10335;SDS011;5213;53.548;9.930;2023-11-22T02:00:24;8.57;;;5.32;;
10335;SDS011;5213;53.548;9.930;2023-11-22T02:02:51;5.60;;;4.68;;
10335;SDS011;5213;53.548;9.930;2023-11-22T02:05:18;5.80;;;4.50;;
10335;SDS011;5213;53.548;9.930;2023-11-22T02:07:43;5.90;;;4.80;;
10335;SDS011;5213;53.548;9.930;2023-11-22T02:10:09;7.60;;;4.88;;
10335;SDS011;5213;53.548;9.930;2023-11-22T02:12:35;6.72;;;4.80;;
10335;SDS011;5213;53.548;9.930;2023-11-22T02:15:01;6.32;;;5.00;;
10335;SDS011;5213;53.548;9.930;2023-11-22T02:17:29;6.10;;;4.35;;
10335;SDS011;5213;53.548;9.930;2023-11-22T02:19:54;6.82;;;4.53;;
10335;SDS011;5213;53.548;9.930;2023-11-22T02:22:20;6.43;;;4.50;;
10335;SDS011;5213;53.548;9.930;2023-11-22T02:24:46;5.50;;;4.32;;
10335;SDS011;5213;53.548;9.930;2023-11-22T02:27:12;5.53;;;4.70;;
10335;SDS011;5213;53.548;9.930;2023-11-22T02:29:37;5.30;;;4.80;;
10335;SDS011;5213;53.548;9.930;2023-11-22T02:32:03;6.72;;;4.65;;
10335;SDS011;5213;53.548;9.930;2023-11-22T02:34:29;5.65;;;4.55;;
10335;SDS011;5213;53.548;9.930;2023-11-22T02:36:55;5.82;;;4.95;;
10335;SDS011;5213;53.548;9.930;2023-11-22T02:39:21;5.70;;;4.80;;
10335;SDS011;5213;53.548;9.930;2023-11-22T02:41:58;6.88;;;5.00;;
10335;SDS011;5213;53.548;9.930;2023-11-22T02:44:23;5.93;;;4.70;;
10335;SDS011;5213;53.548;9.930;2023-11-22T02:46:49;7.47;;;5.00;;
10335;SDS011;5213;53.548;9.930;2023-11-22T02:49:14;6.88;;;4.78;;
10335;SDS011;5213;53.548;9.930;2023-11-22T02:51:40;6.97;;;4.85;;
10335;SDS011;5213;53.548;9.930;2023-11-22T02:54:06;5.40;;;4.50;;
10335;SDS011;5213;53.548;9.930;2023-11-22T02:56:31;7.28;;;5.10;;
10335;SDS011;5213;53.548;9.930;2023-11-22T02:58:57;6.72;;;4.80;;
10335;SDS011;5213;53.548;9.930;2023-11-22T03:01:23;5.90;;;4.60;;
10335;SDS011;5213;53.548;9.930;2023-11-22T03:03:48;7.22;;;4.80;;
10335;SDS011;5213;53.548;9.930;2023-11-22T03:06:14;7.70;;;5.00;;
10335;SDS011;5213;53.548;9.930;2023-11-22T03:08:40;6.47;;;4.93;;
10335;SDS011;5213;53.548;9.930;2023-11-22T03:11:05;7.72;;;5.03;;
10335;SDS011;5213;53.548;9.930;2023-11-22T03:13:31;6.85;;;4.32;;
10335;SDS011;5213;53.548;9.930;2023-11-22T03:15:58;6.95;;;4.97;;
10335;SDS011;5213;53.548;9.930;2023-11-22T03:18:24;10.05;;;5.70;;
10335;SDS011;5213;53.548;9.930;2023-11-22T03:20:51;6.30;;;4.60;;
10335;SDS011;5213;53.548;9.930;2023-11-22T03:23:19;6.75;;;4.55;;
10335;SDS011;5213;53.548;9.930;2023-11-22T03:25:45;7.82;;;5.07;;
10335;SDS011;5213;53.548;9.930;2023-11-22T03:28:11;5.75;;;4.82;;
10335;SDS011;5213;53.548;9.930;2023-11-22T03:30:37;7.55;;;5.10;;
10335;SDS011;5213;53.548;9.930;2023-11-22T03:33:04;6.28;;;4.68;;
10335;SDS011;5213;53.548;9.930;2023-11-22T03:35:30;6.28;;;4.63;;
10335;SDS011;5213;53.548;9.930;2023-11-22T03:37:56;6.95;;;4.90;;
10335;SDS011;5213;53.548;9.930;2023-11-22T03:40:21;5.55;;;4.82;;
10335;SDS011;5213;53.548;9.930;2023-11-22T03:42:47;6.32;;;4.93;;
10335;SDS011;5213;53.548;9.930;2023-11-22T03:45:13;7.25;;;5.00;;
10335;SDS011;5213;53.548;9.930;2023-11-22T03:47:39;7.10;;;4.78;;
10335;SDS011;5213;53.548;9.930;2023-11-22T03:50:05;5.25;;;4.53;;
10335;SDS011;5213;53.548;9.930;2023-11-22T03:52:31;6.43;;;5.07;;
10335;SDS011;5213;53.548;9.930;2023-11-22T03:54:57;7.82;;;4.95;;
10335;SDS011;5213;53.548;9.930;2023-11-22T03:57:23;8.52;;;4.95;;
10335;SDS011;5213;53.548;9.930;2023-11-22T03:59:48;6.35;;;5.40;;
10335;SDS011;5213;53.548;9.930;2023-11-22T04:02:14;7.93;;;5.53;;
10335;SDS011;5213;53.548;9.930;2023-11-22T04:04:40;6.20;;;4.93;;
10335;SDS011;5213;53.548;9.930;2023-11-22T04:07:06;5.70;;;5.10;;
10335;SDS011;5213;53.548;9.930;2023-11-22T04:09:32;6.15;;;5.30;;
10335;SDS011;5213;53.548;9.930;2023-11-22T04:11:58;6.32;;;4.93;;
10335;SDS011;5213;53.548;9.930;2023-11-22T04:14:24;8.52;;;5.07;;
10335;SDS011;5213;53.548;9.930;2023-11-22T04:16:52;8.32;;;5.82;;
10335;SDS011;5213;53.548;9.930;2023-11-22T04:19:18;7.38;;;5.10;;
10335;SDS011;5213;53.548;9.930;2023-11-22T04:21:43;8.13;;;5.57;;
10335;SDS011;5213;53.548;9.930;2023-11-22T04:24:09;7.30;;;5.72;;
10335;SDS011;5213;53.548;9.930;2023-11-22T04:26:35;8.00;;;5.68;;
10335;SDS011;5213;53.548;9.930;2023-11-22T04:29:01;7.43;;;5.65;;
10335;SDS011;5213;53.548;9.930;2023-11-22T04:31:27;6.43;;;5.35;;
10335;SDS011;5213;53.548;9.930;2023-11-22T04:33:52;6.45;;;5.53;;
10335;SDS011;5213;53.548;9.930;2023-11-22T04:36:19;6.43;;;5.30;;
10335;SDS011;5213;53.548;9.930;2023-11-22T04:38:45;8.23;;;4.78;;
10335;SDS011;5213;53.548;9.930;2023-11-22T04:41:11;5.78;;;4.72;;
10335;SDS011;5213;53.548;9.930;2023-11-22T04:43:37;6.50;;;4.95;;
10335;SDS011;5213;53.548;9.930;2023-11-22T04:46:02;6.45;;;5.28;;
10335;SDS011;5213;53.548;9.930;2023-11-22T04:48:29;7.00;;;5.35;;
10335;SDS011;5213;53.548;9.930;2023-11-22T04:50:55;5.30;;;4.57;;
10335;SDS011;5213;53.548;9.930;2023-11-22T04:53:20;5.10;;;4.32;;
10335;SDS011;5213;53.548;9.930;2023-11-22T04:55:46;6.35;;;4.25;;
10335;SDS011;5213;53.548;9.930;2023-11-22T04:58:11;6.30;;;4.90;;
10335;SDS011;5213;53.548;9.930;2023-11-22T05:00:37;5.95;;;4.50;;
10335;SDS011;5213;53.548;9.930;2023-11-22T05:03:02;5.43;;;4.20;;
10335;SDS011;5213;53.548;9.930;2023-11-22T05:05:28;5.57;;;4.20;;
10335;SDS011;5213;53.548;9.930;2023-11-22T05:07:54;7.18;;;4.93;;
10335;SDS011;5213;53.548;9.930;2023-11-22T05:10:19;5.00;;;4.50;;
10335;SDS011;5213;53.548;9.930;2023-11-22T05:12:45;6.10;;;4.88;;
10335;SDS011;5213;53.548;9.930;2023-11-22T05:15:11;5.43;;;4.70;;
10335;SDS011;5213;53.548;9.930;2023-11-22T05:17:36;6.40;;;4.70;;
10335;SDS011;5213;53.548;9.930;2023-11-22T05:20:02;9.23;;;4.75;;
10335;SDS011;5213;53.548;9.930;2023-11-22T05:22:30;5.93;;;5.10;;
10335;SDS011;5213;53.548;9.930;2023-11-22T05:24:55;5.53;;;4.75;;
10335;SDS011;5213;53.548;9.930;2023-11-22T05:27:21;8.02;;;5.55;;
10335;SDS011;5213;53.548;9.930;2023-11-22T05:29:47;8.27;;;5.57;;
10335;SDS011;5213;53.548;9.930;2023-11-22T05:32:12;6.55;;;4.97;;
10335;SDS011;5213;53.548;9.930;2023-11-22T05:34:38;5.60;;;4.47;;
10335;SDS011;5213;53.548;9.930;2023-11-22T05:37:05;6.43;;;4.25;;
10335;SDS011;5213;53.548;9.930;2023-11-22T05:39:31;5.53;;;4.60;;
10335;SDS011;5213;53.548;9.930;2023-11-22T05:41:56;7.00;;;4.50;;
10335;SDS011;5213;53.548;9.930;2023-11-22T05:44:22;7.32;;;4.40;;
10335;SDS011;5213;53.548;9.930;2023-11-22T05:46:47;5.45;;;4.70;;
10335;SDS011;5213;53.548;9.930;2023-11-22T05:49:13;7.78;;;4.55;;
10335;SDS011;5213;53.548;9.930;2023-11-22T05:51:39;6.28;;;4.80;;
10335;SDS011;5213;53.548;9.930;2023-11-22T05:54:04;6.72;;;5.10;;
10335;SDS011;5213;53.548;9.930;2023-11-22T05:56:31;7.20;;;4.88;;
10335;SDS011;5213;53.548;9.930;2023-11-22T05:58:57;7.50;;;4.88;;
10335;SDS011;5213;53.548;9.930;2023-11-22T06:01:22;7.53;;;5.13;;
10335;SDS011;5213;53.548;9.930;2023-11-22T06:03:48;5.68;;;4.85;;
10335;SDS011;5213;53.548;9.930;2023-11-22T06:06:14;6.40;;;5.15;;
10335;SDS011;5213;53.548;9.930;2023-11-22T06:08:39;6.15;;;5.25;;
10335;SDS011;5213;53.548;9.930;2023-11-22T06:11:05;7.60;;;5.68;;
10335;SDS011;5213;53.548;9.930;2023-11-22T06:13:32;10.45;;;5.90;;
10335;SDS011;5213;53.548;9.930;2023-11-22T06:15:57;6.40;;;5.40;;
10335;SDS011;5213;53.548;9.930;2023-11-22T06:18:23;7.03;;;5.47;;
10335;SDS011;5213;53.548;9.930;2023-11-22T06:20:54;5.80;;;5.05;;
10335;SDS011;5213;53.548;9.930;2023-11-22T06:23:23;6.68;;;5.30;;
10335;SDS011;5213;53.548;9.930;2023-11-22T06:25:48;6.25;;;5.65;;
10335;SDS011;5213;53.548;9.930;2023-11-22T06:28:14;8.27;;;5.15;;
10335;SDS011;5213;53.548;9.930;2023-11-22T06:30:40;7.65;;;5.57;;
10335;SDS011;5213;53.548;9.930;2023-11-22T06:33:06;5.95;;;5.32;;
10335;SDS011;5213;53.548;9.930;2023-11-22T06:35:32;7.82;;;5.68;;
10335;SDS011;5213;53.548;9.930;2023-11-22T06:37:58;7.90;;;5.70;;
10335;SDS011;5213;53.548;9.930;2023-11-22T06:40:23;10.00;;;6.82;;
10335;SDS011;5213;53.548;9.930;2023-11-22T06:42:49;9.85;;;6.75;;
10335;SDS011;5213;53.548;9.930;2023-11-22T06:45:14;15.23;;;7.07;;
10335;SDS011;5213;53.548;9.930;2023-11-22T06:47:40;11.80;;;6.88;;
10335;SDS011;5213;53.548;9.930;2023-11-22T06:50:08;11.02;;;6.90;;
10335;SDS011;5213;53.548;9.930;2023-11-22T06:52:37;10.05;;;6.75;;
10335;SDS011;5213;53.548;9.930;2023-11-22T06:55:04;10.40;;;7.18;;
10335;SDS011;5213;53.548;9.930;2023-11-22T06:57:31;12.50;;;7.40;;
10335;SDS011;5213;53.548;9.930;2023-11-22T06:59:56;10.70;;;7.72;;
10335;SDS011;5213;53.548;9.930;2023-11-22T07:02:22;10.93;;;7.75;;
10335;SDS011;5213;53.548;9.930;2023-11-22T07:04:48;13.40;;;8.68;;
10335;SDS011;5213;53.548;9.930;2023-11-22T07:07:13;11.15;;;7.55;;
10335;SDS011;5213;53.548;9.930;2023-11-22T07:09:43;10.40;;;7.35;;
10335;SDS011;5213;53.548;9.930;2023-11-22T07:12:09;10.63;;;6.70;;
10335;SDS011;5213;53.548;9.930;2023-11-22T07:14:35;8.05;;;6.88;;
10335;SDS011;5213;53.548;9.930;2023-11-22T07:17:01;10.40;;;6.53;;
10335;SDS011;5213;53.548;9.930;2023-11-22T07:19:27;9.18;;;6.30;;
10335;SDS011;5213;53.548;9.930;2023-11-22T07:21:53;9.45;;;6.28;;
10335;SDS011;5213;53.548;9.930;2023-11-22T07:24:19;10.70;;;6.57;;
10335;SDS011;5213;53.548;9.930;2023-11-22T07:26:44;8.68;;;6.70;;
10335;SDS011;5213;53.548;9.930;2023-11-22T07:29:10;9.40;;;6.75;;
10335;SDS011;5213;53.548;9.930;2023-11-22T07:31:37;8.07;;;5.85;;
10335;SDS011;5213;53.548;9.930;2023-11-22T07:34:03;8.85;;;6.68;;
10335;SDS011;5213;53.548;9.930;2023-11-22T07:36:29;6.85;;;6.15;;
10335;SDS011;5213;53.548;9.930;2023-11-22T07:38:55;8.30;;;5.10;;
10335;SDS011;5213;53.548;9.930;2023-11-22T07:41:21;7.22;;;5.32;;
10335;SDS011;5213;53.548;9.930;2023-11-22T07:43:47;6.50;;;4.82;;
10335;SDS011;5213;53.548;9.930;2023-11-22T07:46:14;6.25;;;4.60;;
10335;SDS011;5213;53.548;9.930;2023-11-22T07:48:42;5.28;;;4.53;;
10335;SDS011;5213;53.548;9.930;2023-11-22T07:51:08;6.47;;;5.22;;
10335;SDS011;5213;53.548;9.930;2023-11-22T07:53:34;6.40;;;5.25;;
10335;SDS011;5213;53.548;9.930;2023-11-22T07:56:00;6.45;;;4.78;;
10335;SDS011;5213;53.548;9.930;2023-11-22T07:58:30;6.38;;;5.22;;
10335;SDS011;5213;53.548;9.930;2023-11-22T08:00:56;6.30;;;4.80;;
10335;SDS011;5213;53.548;9.930;2023-11-22T08:03:23;5.80;;;5.05;;
10335;SDS011;5213;53.548;9.930;2023-11-22T08:05:50;9.60;;;5.50;;
10335;SDS011;5213;53.548;9.930;2023-11-22T08:08:21;13.98;;;5.75;;
10335;SDS011;5213;53.548;9.930;2023-11-22T08:10:47;6.82;;;5.38;;
10335;SDS011;5213;53.548;9.930;2023-11-22T08:13:16;10.00;;;4.85;;
10335;SDS011;5213;53.548;9.930;2023-11-22T08:15:44;6.60;;;5.68;;
10335;SDS011;5213;53.548;9.930;2023-11-22T08:18:11;6.28;;;5.13;;
10335;SDS011;5213;53.548;9.930;2023-11-22T08:20:37;8.43;;;6.03;;
10335;SDS011;5213;53.548;9.930;2023-11-22T08:23:03;8.20;;;5.57;;
10335;SDS011;5213;53.548;9.930;2023-11-22T08:25:31;6.55;;;5.65;;
10335;SDS011;5213;53.548;9.930;2023-11-22T08:27:56;8.95;;;5.85;;
10335;SDS011;5213;53.548;9.930;2023-11-22T08:30:22;8.80;;;5.60;;
10335;SDS011;5213;53.548;9.930;2023-11-22T08:32:48;7.93;;;5.57;;
10335;SDS011;5213;53.548;9.930;2023-11-22T08:35:18;6.65;;;5.32;;
10335;SDS011;5213;53.548;9.930;2023-11-22T08:37:45;8.18;;;5.43;;
10335;SDS011;5213;53.548;9.930;2023-11-22T08:40:12;6.88;;;5.70;;
10335;SDS011;5213;53.548;9.930;2023-11-22T08:42:41;7.80;;;5.65;;
10335;SDS011;5213;53.548;9.930;2023-11-22T08:45:07;6.95;;;5.43;;
10335;SDS011;5213;53.548;9.930;2023-11-22T08:47:33;6.93;;;5.50;;
10335;SDS011;5213;53.548;9.930;2023-11-22T08:49:59;7.35;;;5.55;;
10335;SDS011;5213;53.548;9.930;2023-11-22T08:52:28;7.53;;;5.95;;
10335;SDS011;5213;53.548;9.930;2023-11-22T08:55:01;9.40;;;5.70;;
10335;SDS011;5213;53.548;9.930;2023-11-22T08:57:27;9.68;;;4.85;;
10335;SDS011;5213;53.548;9.930;2023-11-22T08:59:53;6.30;;;4.28;;
10335;SDS011;5213;53.548;9.930;2023-11-22T09:02:19;5.78;;;4.50;;
10335;SDS011;5213;53.548;9.930;2023-11-22T09:04:47;6.07;;;4.28;;
10335;SDS011;5213;53.548;9.930;2023-11-22T09:07:13;5.13;;;4.15;;
10335;SDS011;5213;53.548;9.930;2023-11-22T09:09:43;7.43;;;4.80;;
10335;SDS011;5213;53.548;9.930;2023-11-22T09:12:08;7.20;;;4.60;;
10335;SDS011;5213;53.548;9.930;2023-11-22T09:14:38;7.90;;;5.10;;
10335;SDS011;5213;53.548;9.930;2023-11-22T09:17:05;6.13;;;5.05;;
10335;SDS011;5213;53.548;9.930;2023-11-22T09:19:32;7.10;;;5.20;;
10335;SDS011;5213;53.548;9.930;2023-11-22T09:21:59;7.50;;;4.70;;
10335;SDS011;5213;53.548;9.930;2023-11-22T09:24:25;7.22;;;4.22;;
10335;SDS011;5213;53.548;9.930;2023-11-22T09:26:51;7.10;;;4.22;;
10335;SDS011;5213;53.548;9.930;2023-11-22T09:29:17;5.95;;;4.10;;
10335;SDS011;5213;53.548;9.930;2023-11-22T09:31:43;3.78;;;3.13;;
10335;SDS011;5213;53.548;9.930;2023-11-22T09:34:12;5.25;;;3.45;;
10335;SDS011;5213;53.548;9.930;2023-11-22T09:36:38;3.10;;;2.83;;
10335;SDS011;5213;53.548;9.930;2023-11-22T09:39:04;4.88;;;4.20;;
10335;SDS011;5213;53.548;9.930;2023-11-22T09:41:34;4.20;;;3.80;;
10335;SDS011;5213;53.548;9.930;2023-11-22T09:44:04;4.40;;;4.00;;
10335;SDS011;5213;53.548;9.930;2023-11-22T09:46:30;6.32;;;4.00;;
10335;SDS011;5213;53.548;9.930;2023-11-22T09:49:20;4.60;;;3.38;;
10335;SDS011;5213;53.548;9.930;2023-11-22T09:51:51;4.00;;;3.63;;
10335;SDS011;5213;53.548;9.930;2023-11-22T09:54:20;5.32;;;3.72;;
10335;SDS011;5213;53.548;9.930;2023-11-22T09:56:49;6.30;;;4.28;;
10335;SDS011;5213;53.548;9.930;2023-11-22T09:59:16;4.22;;;3.83;;
10335;SDS011;5213;53.548;9.930;2023-11-22T10:01:45;6.70;;;4.20;;
10335;SDS011;5213;53.548;9.930;2023-11-22T10:04:17;5.07;;;3.85;;
10335;SDS011;5213;53.548;9.930;2023-11-22T10:06:43;7.25;;;3.65;;
10335;SDS011;5213;53.548;9.930;2023-11-22T10:09:12;4.38;;;3.63;;
10335;SDS011;5213;53.548;9.930;2023-11-22T10:11:39;4.75;;;3.03;;
10335;SDS011;5213;53.548;9.930;2023-11-22T10:14:08;3.72;;;3.40;;
10335;SDS011;5213;53.548;9.930;2023-11-22T10:16:34;5.05;;;3.55;;
10335;SDS011;5213;53.548;9.930;2023-11-22T10:19:03;5.30;;;4.00;;
10335;SDS011;5213;53.548;9.930;2023-11-22T10:21:31;5.00;;;4.40;;
10335;SDS011;5213;53.548;9.930;2023-11-22T10:24:00;5.35;;;4.50;;
10335;SDS011;5213;53.548;9.930;2023-11-22T10:26:31;6.85;;;4.93;;
10335;SDS011;5213;53.548;9.930;2023-11-22T10:28:57;6.13;;;4.55;;
10335;SDS011;5213;53.548;9.930;2023-11-22T10:31:26;6.20;;;4.72;;
10335;SDS011;5213;53.548;9.930;2023-11-22T10:33:53;5.47;;;4.90;;
10335;SDS011;5213;53.548;9.930;2023-11-22T10:36:20;6.20;;;5.07;;
10335;SDS011;5213;53.548;9.930;2023-11-22T10:38:48;8.38;;;5.10;;
10335;SDS011;5213;53.548;9.930;2023-11-22T10:41:16;5.43;;;4.68;;
10335;SDS011;5213;53.548;9.930;2023-11-22T10:43:42;7.18;;;5.38;;
10335;SDS011;5213;53.548;9.930;2023-11-22T10:46:09;5.40;;;4.80;;
10335;SDS011;5213;53.548;9.930;2023-11-22T10:48:38;7.13;;;4.32;;
10335;SDS011;5213;53.548;9.930;2023-11-22T10:51:04;8.07;;;3.92;;
10335;SDS011;5213;53.548;9.930;2023-11-22T10:53:32;6.53;;;3.67;;
10335;SDS011;5213;53.548;9.930;2023-11-22T10:56:15;6.72;;;3.60;;
10335;SDS011;5213;53.548;9.930;2023-11-22T10:58:49;5.05;;;2.50;;
10335;SDS011;5213;53.548;9.930;2023-11-22T11:01:17;4.28;;;2.92;;
10335;SDS011;5213;53.548;9.930;2023-11-22T11:03:55;5.53;;;3.08;;
10335;SDS011;5213;53.548;9.930;2023-11-22T11:06:30;5.22;;;2.90;;
10335;SDS011;5213;53.548;9.930;2023-11-22T11:08:59;3.22;;;2.55;;
10335;SDS011;5213;53.548;9.930;2023-11-22T11:11:27;3.40;;;2.70;;
10335;SDS011;5213;53.548;9.930;2023-11-22T11:13:54;2.83;;;2.08;;
10335;SDS011;5213;53.548;9.930;2023-11-22T11:16:20;3.08;;;2.40;;
10335;SDS011;5213;53.548;9.930;2023-11-22T11:18:48;2.97;;;2.25;;
10335;SDS011;5213;53.548;9.930;2023-11-22T11:21:14;2.97;;;2.40;;
10335;SDS011;5213;53.548;9.930;2023-11-22T11:23:40;4.78;;;2.40;;
10335;SDS011;5213;53.548;9.930;2023-11-22T11:26:09;2.55;;;2.38;;
10335;SDS011;5213;53.548;9.930;2023-11-22T11:28:43;4.25;;;2.55;;
10335;SDS011;5213;53.548;9.930;2023-11-22T11:31:13;3.95;;;2.55;;
10335;SDS011;5213;53.548;9.930;2023-11-22T11:36:23;2.40;;;2.17;;
10335;SDS011;5213;53.548;9.930;2023-11-22T11:38:50;2.30;;;1.90;;
10335;SDS011;5213;53.548;9.930;2023-11-22T11:41:17;1.95;;;1.60;;
10335;SDS011;5213;53.548;9.930;2023-11-22T11:43:47;5.75;;;2.22;;
10335;SDS011;5213;53.548;9.930;2023-11-22T11:46:14;2.33;;;2.10;;
10335;SDS011;5213;53.548;9.930;2023-11-22T11:48:44;2.20;;;1.67;;
10335;SDS011;5213;53.548;9.930;2023-11-22T11:51:13;2.33;;;1.80;;
10335;SDS011;5213;53.548;9.930;2023-11-22T11:53:40;6.10;;;2.00;;
10335;SDS011;5213;53.548;9.930;2023-11-22T11:56:06;3.17;;;1.83;;
10335;SDS011;5213;53.548;9.930;2023-11-22T11:58:32;1.67;;;1.58;;
10335;SDS011;5213;53.548;9.930;2023-11-22T12:00:59;1.30;;;1.30;;
10335;SDS011;5213;53.548;9.930;2023-11-22T12:03:24;1.40;;;1.40;;
10335;SDS011;5213;53.548;9.930;2023-11-22T12:05:50;1.50;;;1.40;;
10335;SDS011;5213;53.548;9.930;2023-11-22T12:08:15;2.60;;;1.30;;
10335;SDS011;5213;53.548;9.930;2023-11-22T12:10:42;2.03;;;1.23;;
10335;SDS011;5213;53.548;9.930;2023-11-22T12:13:08;1.58;;;1.48;;
10335;SDS011;5213;53.548;9.930;2023-11-22T12:15:34;2.80;;;1.65;;
10335;SDS011;5213;53.548;9.930;2023-11-22T12:18:03;1.60;;;1.50;;
10335;SDS011;5213;53.548;9.930;2023-11-22T12:20:29;3.08;;;1.90;;
10335;SDS011;5213;53.548;9.930;2023-11-22T12:22:59;1.90;;;1.80;;
10335;SDS011;5213;53.548;9.930;2023-11-22T12:25:31;1.98;;;1.80;;
10335;SDS011;5213;53.548;9.930;2023-11-22T12:27:57;1.60;;;1.50;;
10335;SDS011;5213;53.548;9.930;2023-11-22T12:30:33;3.20;;;1.73;;
10335;SDS011;5213;53.548;9.930;2023-11-22T12:33:04;3.17;;;1.70;;
10335;SDS011;5213;53.548;9.930;2023-11-22T12:35:31;2.00;;;1.90;;
10335;SDS011;5213;53.548;9.930;2023-11-22T12:37:59;3.50;;;1.90;;
10335;SDS011;5213;53.548;9.930;2023-11-22T12:40:30;1.92;;;1.80;;
10335;SDS011;5213;53.548;9.930;2023-11-22T12:42:57;1.92;;;1.70;;
10335;SDS011;5213;53.548;9.930;2023-11-22T12:45:23;1.73;;;1.63;;
10335;SDS011;5213;53.548;9.930;2023-11-22T12:47:50;3.60;;;2.25;;
10335;SDS011;5213;53.548;9.930;2023-11-22T12:50:35;2.75;;;1.65;;
10335;SDS011;5213;53.548;9.930;2023-11-22T12:53:11;1.50;;;1.50;;
10335;SDS011;5213;53.548;9.930;2023-11-22T12:55:41;1.83;;;1.73;;
10335;SDS011;5213;53.548;9.930;2023-11-22T12:58:11;2.05;;;1.85;;
10335;SDS011;5213;53.548;9.930;2023-11-22T13:00:40;2.05;;;1.80;;
10335;SDS011;5213;53.548;9.930;2023-11-22T13:03:07;2.40;;;2.00;;
10335;SDS011;5213;53.548;9.930;2023-11-22T13:05:35;3.90;;;2.20;;
10335;SDS011;5213;53.548;9.930;2023-11-22T13:08:04;2.20;;;2.00;;
10335;SDS011;5213;53.548;9.930;2023-11-22T13:10:30;1.85;;;1.48;;
10335;SDS011;5213;53.548;9.930;2023-11-22T13:12:56;1.70;;;1.60;;
10335;SDS011;5213;53.548;9.930;2023-11-22T13:15:22;1.65;;;1.55;;
10335;SDS011;5213;53.548;9.930;2023-11-22T13:17:49;1.80;;;1.70;;
10335;SDS011;5213;53.548;9.930;2023-11-22T13:20:18;1.40;;;1.30;;
10335;SDS011;5213;53.548;9.930;2023-11-22T13:22:45;1.52;;;1.42;;
10335;SDS011;5213;53.548;9.930;2023-11-22T13:25:12;1.67;;;1.20;;
10335;SDS011;5213;53.548;9.930;2023-11-22T13:27:42;1.67;;;1.45;;
10335;SDS011;5213;53.548;9.930;2023-11-22T13:30:08;1.80;;;1.48;;
10335;SDS011;5213;53.548;9.930;2023-11-22T13:32:34;1.38;;;1.27;;
10335;SDS011;5213;53.548;9.930;2023-11-22T13:35:00;1.33;;;1.23;;
10335;SDS011;5213;53.548;9.930;2023-11-22T13:37:26;1.13;;;1.13;;
10335;SDS011;5213;53.548;9.930;2023-11-22T13:39:52;1.50;;;1.40;;
10335;SDS011;5213;53.548;9.930;2023-11-22T13:42:18;1.90;;;1.48;;
10335;SDS011;5213;53.548;9.930;2023-11-22T13:44:44;1.35;;;1.35;;
10335;SDS011;5213;53.548;9.930;2023-11-22T13:47:10;1.80;;;1.70;;
10335;SDS011;5213;53.548;9.930;2023-11-22T13:49:36;1.45;;;1.40;;
10335;SDS011;5213;53.548;9.930;2023-11-22T13:52:04;2.13;;;1.90;;
10335;SDS011;5213;53.548;9.930;2023-11-22T13:54:29;2.03;;;1.92;;
10335;SDS011;5213;53.548;9.930;2023-11-22T13:56:57;2.65;;;1.90;;
10335;SDS011;5213;53.548;9.930;2023-11-22T13:59:23;1.60;;;1.50;;
10335;SDS011;5213;53.548;9.930;2023-11-22T14:01:49;2.85;;;1.63;;
10335;SDS011;5213;53.548;9.930;2023-11-22T14:04:15;3.38;;;2.10;;
10335;SDS011;5213;53.548;9.930;2023-11-22T14:06:40;2.85;;;2.13;;
10335;SDS011;5213;53.548;9.930;2023-11-22T14:09:06;2.00;;;1.80;;
10335;SDS011;5213;53.548;9.930;2023-11-22T14:11:33;2.92;;;2.03;;
10335;SDS011;5213;53.548;9.930;2023-11-22T14:14:01;3.42;;;2.17;;
10335;SDS011;5213;53.548;9.930;2023-11-22T14:16:28;2.50;;;2.30;;
10335;SDS011;5213;53.548;9.930;2023-11-22T14:18:55;15.80;;;7.95;;
10335;SDS011;5213;53.548;9.930;2023-11-22T14:21:22;2.60;;;2.47;;
10335;SDS011;5213;53.548;9.930;2023-11-22T14:23:50;2.53;;;2.33;;
10335;SDS011;5213;53.548;9.930;2023-11-22T14:26:15;3.22;;;2.60;;
10335;SDS011;5213;53.548;9.930;2023-11-22T14:28:41;4.22;;;2.50;;
10335;SDS011;5213;53.548;9.930;2023-11-22T14:31:08;3.13;;;2.30;;
10335;SDS011;5213;53.548;9.930;2023-11-22T14:33:34;2.13;;;2.03;;
10335;SDS011;5213;53.548;9.930;2023-11-22T14:36:00;3.00;;;2.47;;
10335;SDS011;5213;53.548;9.930;2023-11-22T14:38:26;3.67;;;2.30;;
10335;SDS011;5213;53.548;9.930;2023-11-22T14:40:51;2.10;;;1.90;;
10335;SDS011;5213;53.548;9.930;2023-11-22T14:43:17;2.60;;;2.00;;
10335;SDS011;5213;53.548;9.930;2023-11-22T14:45:44;1.80;;;1.70;;
10335;SDS011;5213;53.548;9.930;2023-11-22T14:48:10;1.75;;;1.65;;
10335;SDS011;5213;53.548;9.930;2023-11-22T14:50:37;1.90;;;1.80;;
10335;SDS011;5213;53.548;9.930;2023-11-22T14:53:03;1.90;;;1.80;;
10335;SDS011;5213;53.548;9.930;2023-11-22T14:55:29;2.35;;;1.80;;
10335;SDS011;5213;53.548;9.930;2023-11-22T14:57:54;5.63;;;1.80;;
10335;SDS011;5213;53.548;9.930;2023-11-22T15:00:22;1.83;;;1.40;;